الصفحة الرئيسية
METAR-TAF:

METAR-TAF

مطار :

Puerto Carreño, كولومبيا

دائرة عرض: 06-10N, خط طول: 067-30W, ارتفاع: 55 متر

مراقبة الطقس الحالي

تاريخ ووقت الإصدار 39 دقيقة قبل الساعة 13:00UTC
ريح 12 عقدة من الشمال/الشمال الشرقي
درجة الحرارة 28°درجة مئوية
الرطوبة 66%
ضغط 1012 hPa
الرؤية 10 كم أو أكثر
الغيوم لا تقل 1500 م ولا وجود لمزنة ركامية السحاب الأسود

METAR: SKPC 011300Z 03012KT CAVOK 28/21 Q1012

زمن: 08:39 (13:39 UTC)


TAF: مفقودة

أرصاد الطقس والتوقعات من أكثر من 4000 مطار (تقارير الطقس للمطار METAR والتنبؤ بالطقس بالمطارTAF).

المحطات المتاحة هي النقط الصفراء والحمراء على الخريطة.

حرك المؤشر فوق النقطة لمعرفة اسم المحطة.

ثم انقر لمعرفة أرصاد وتوقعات الطقس.

لتغيير الخارطة: اضغط على الأزرار الخضراء مع رمز الصليب الأسود للتكبير. على الزر الأخضر مع شرطة للتصغير، أو على الأسهم الخضراء للخرائط المجاورة.


METAR-TAF: